Time;durP1;ratioP1;P1;durP2;ratioP2;P2;SDS_P1;SDS_P2;PMS_P1;PMS_P2;Temp;Humidity;BMP_temperature;BMP_pressure;BME280_temperature;BME280_humidity;BME280_pressure;Samples;Min_cycle;Max_cycle;Signal;HPM_P1;HPM_P2
2023/11/13 00:01:11;;;;;;;6.60;6.50;;;5.50;99.90;;;;;;5029151;27;20469;-69
2023/11/13 00:03:39;;;;;;;7.17;7.07;;;5.50;99.90;;;;;;5026889;28;20814;-70
2023/11/13 00:06:06;;;;;;;7.23;7.13;;;5.50;99.90;;;;;;5016987;28;20486;-69
2023/11/13 00:08:33;;;;;;;7.50;7.40;;;5.40;99.90;;;;;;5021293;28;20466;-71
2023/11/13 00:11:01;;;;;;;7.47;7.37;;;5.40;99.90;;;;;;5020768;27;20457;-72
2023/11/13 00:13:28;;;;;;;8.60;8.50;;;5.40;99.90;;;;;;5054449;27;20512;-70
2023/11/13 00:15:57;;;;;;;7.70;7.60;;;5.50;99.90;;;;;;5027746;28;20915;-72
2023/11/13 00:18:25;;;;;;;7.20;7.10;;;5.50;99.90;;;;;;5020334;28;20532;-69
2023/11/13 00:20:54;;;;;;;7.10;7.00;;;5.50;99.90;;;;;;5030983;27;20466;-71
2023/11/13 00:23:20;;;;;;;7.10;7.00;;;5.50;99.90;;;;;;5022908;28;20485;-71
2023/11/13 00:25:48;;;;;;;7.17;7.07;;;5.50;99.90;;;;;;5019148;27;20466;-72
2023/11/13 00:28:14;;;;;;;7.10;7.00;;;5.50;99.90;;;;;;5024760;28;20958;-71
2023/11/13 00:30:41;;;;;;;6.73;6.63;;;5.50;99.90;;;;;;5024531;27;20460;-70
2023/11/13 00:33:08;;;;;;;6.87;6.77;;;5.50;99.90;;;;;;5026169;28;20465;-72
2023/11/13 00:35:35;;;;;;;6.70;6.60;;;5.50;99.90;;;;;;5028479;28;20544;-72
2023/11/13 00:38:04;;;;;;;7.20;7.10;;;5.60;99.90;;;;;;5018723;28;20489;-72
2023/11/13 00:40:34;;;;;;;6.40;6.30;;;5.60;99.90;;;;;;5016257;27;20991;-72
2023/11/13 00:43:01;;;;;;;6.40;6.30;;;5.60;99.90;;;;;;5026580;28;20526;-69
2023/11/13 00:45:29;;;;;;;6.70;6.60;;;5.60;99.90;;;;;;5027952;27;20477;-70
2023/11/13 00:47:58;;;;;;;6.80;6.70;;;5.70;99.90;;;;;;5023792;28;20474;-69
2023/11/13 00:50:25;;;;;;;7.90;7.80;;;5.70;99.90;;;;;;5026754;28;20478;-70
2023/11/13 00:52:51;;;;;;;8.00;7.90;;;5.80;99.90;;;;;;5012657;28;20488;-71
2023/11/13 00:55:18;;;;;;;7.80;7.70;;;5.90;99.90;;;;;;5021123;28;20472;-72
2023/11/13 00:57:45;;;;;;;7.13;7.03;;;5.90;99.90;;;;;;5019637;28;20500;-69
2023/11/13 01:00:14;;;;;;;7.80;7.70;;;5.90;99.90;;;;;;5026536;28;20458;-70
2023/11/13 01:02:41;;;;;;;7.33;7.23;;;6.00;99.90;;;;;;5055925;27;20458;-70
2023/11/13 01:05:09;;;;;;;6.87;6.77;;;5.90;99.90;;;;;;5025800;28;20815;-71
2023/11/13 01:07:36;;;;;;;6.40;6.30;;;5.90;99.90;;;;;;5057244;27;20464;-70
2023/11/13 01:10:05;;;;;;;6.40;6.30;;;5.90;99.90;;;;;;5027995;27;20470;-70
2023/11/13 01:12:34;;;;;;;6.33;6.23;;;5.90;99.90;;;;;;5042762;27;20457;-70
2023/11/13 01:15:01;;;;;;;7.37;7.27;;;5.90;99.90;;;;;;5014034;28;20488;-71
2023/11/13 01:17:29;;;;;;;6.80;6.70;;;6.00;99.90;;;;;;5025865;28;20545;-68
2023/11/13 01:19:57;;;;;;;6.20;6.10;;;6.00;99.90;;;;;;5026314;28;20458;-68
2023/11/13 01:22:24;;;;;;;5.93;5.83;;;6.00;99.90;;;;;;5035628;27;20484;-71
2023/11/13 01:24:52;;;;;;;7.10;7.00;;;6.00;99.90;;;;;;5013741;28;20462;-71
2023/11/13 01:27:19;;;;;;;6.60;6.50;;;6.00;99.90;;;;;;5027307;28;20919;-72
2023/11/13 01:29:48;;;;;;;5.90;5.80;;;6.00;99.90;;;;;;5017323;28;20493;-70
2023/11/13 01:32:15;;;;;;;6.73;6.63;;;6.00;99.90;;;;;;5045615;27;20818;-71
2023/11/13 01:34:42;;;;;;;6.43;6.33;;;6.10;99.90;;;;;;5013746;28;20806;-73
2023/11/13 01:37:09;;;;;;;6.20;6.10;;;6.10;99.90;;;;;;5019260;28;20472;-71
2023/11/13 01:39:37;;;;;;;6.20;6.10;;;6.10;99.90;;;;;;5013188;28;20857;-69
2023/11/13 01:42:05;;;;;;;6.27;6.17;;;6.10;99.90;;;;;;5022183;27;20462;-70
2023/11/13 01:44:32;;;;;;;6.90;6.80;;;6.10;99.90;;;;;;5021242;28;20509;-71
2023/11/13 01:47:00;;;;;;;6.93;6.83;;;6.10;99.90;;;;;;5039767;27;20466;-70
2023/11/13 01:49:27;;;;;;;7.50;7.40;;;6.20;99.90;;;;;;5012194;28;20473;-72
2023/11/13 01:51:56;;;;;;;8.10;8.00;;;6.20;99.90;;;;;;5020042;28;20576;-71
2023/11/13 01:54:24;;;;;;;8.13;8.03;;;6.30;99.90;;;;;;5024507;28;20450;-72
2023/11/13 01:56:53;;;;;;;8.00;7.90;;;6.30;99.90;;;;;;5016254;28;20832;-71
2023/11/13 01:59:20;;;;;;;8.70;8.60;;;6.40;99.90;;;;;;5023927;28;20528;-72
2023/11/13 02:01:48;;;;;;;8.03;7.93;;;6.40;99.90;;;;;;5019038;28;20477;-72
2023/11/13 02:04:16;;;;;;;8.07;7.97;;;6.40;99.90;;;;;;5024580;28;20449;-72
2023/11/13 02:06:45;;;;;;;8.10;8.00;;;6.40;99.90;;;;;;5018283;28;20557;-73
2023/11/13 02:09:13;;;;;;;8.47;8.37;;;6.50;99.90;;;;;;5025377;28;20467;-72
2023/11/13 02:11:41;;;;;;;7.77;7.67;;;6.50;99.90;;;;;;5025424;27;20458;-68
2023/11/13 02:14:09;;;;;;;8.67;8.57;;;6.50;99.90;;;;;;5052877;27;20461;-71
2023/11/13 02:16:36;;;;;;;8.40;8.30;;;6.60;99.90;;;;;;5041723;27;20457;-68
2023/11/13 02:19:02;;;;;;;8.20;8.10;;;6.60;99.90;;;;;;5016782;28;20556;-73
2023/11/13 02:21:33;;;;;;;8.10;8.00;;;6.70;99.90;;;;;;5018472;28;20523;-72
2023/11/13 02:24:04;;;;;;;8.40;8.30;;;6.60;99.90;;;;;;5013130;28;20462;-71
2023/11/13 02:26:30;;;;;;;9.00;8.80;;;6.70;99.90;;;;;;5016475;28;20464;-71
2023/11/13 02:28:57;;;;;;;7.93;7.83;;;6.70;99.90;;;;;;5024718;28;20458;-70
2023/11/13 02:31:24;;;;;;;8.07;7.97;;;6.70;99.90;;;;;;5025984;28;20514;-71
2023/11/13 02:33:51;;;;;;;7.40;7.30;;;6.70;99.90;;;;;;5014722;28;20465;-72
2023/11/13 02:36:18;;;;;;;7.40;7.30;;;6.70;99.90;;;;;;5024767;28;20458;-70
2023/11/13 02:38:46;;;;;;;8.10;8.00;;;6.70;99.90;;;;;;5018662;28;20589;-72
2023/11/13 02:41:15;;;;;;;9.00;8.80;;;6.70;99.90;;;;;;5017637;28;20464;-71
2023/11/13 02:43:42;;;;;;;8.00;7.90;;;6.80;99.90;;;;;;5024816;28;20459;-70
2023/11/13 02:46:09;;;;;;;8.30;8.20;;;6.80;99.90;;;;;;5028774;27;20458;-69
2023/11/13 02:48:36;;;;;;;9.40;9.20;;;6.90;99.90;;;;;;5010892;28;20476;-70
2023/11/13 02:51:02;;;;;;;9.30;9.10;;;6.90;99.90;;;;;;5023023;28;20466;-71
2023/11/13 02:53:29;;;;;;;9.60;9.40;;;6.90;99.90;;;;;;5017809;28;20484;-69
2023/11/13 02:55:56;;;;;;;10.00;9.80;;;6.90;99.90;;;;;;5008858;27;20465;-70
2023/11/13 02:58:25;;;;;;;9.10;8.90;;;6.90;99.90;;;;;;5024754;28;20485;-69
2023/11/13 03:00:51;;;;;;;9.83;9.63;;;6.80;99.90;;;;;;5015120;28;20469;-70
2023/11/13 03:03:18;;;;;;;10.50;10.30;;;6.80;99.90;;;;;;5014788;27;20470;-68
2023/11/13 03:05:45;;;;;;;10.80;10.60;;;6.80;99.90;;;;;;5024773;28;20522;-71
2023/11/13 03:08:13;;;;;;;10.97;10.67;;;6.80;99.90;;;;;;5024758;28;20465;-69
2023/11/13 03:10:40;;;;;;;10.60;10.40;;;6.90;99.90;;;;;;5026843;28;20469;-71
2023/11/13 03:13:07;;;;;;;11.50;11.20;;;6.90;99.90;;;;;;5047409;27;20539;-70
2023/11/13 03:15:35;;;;;;;11.47;11.17;;;6.90;99.90;;;;;;5023760;28;20453;-69
2023/11/13 03:18:02;;;;;;;12.00;11.70;;;6.80;99.90;;;;;;5025300;28;20825;-71
2023/11/13 03:20:29;;;;;;;11.03;10.73;;;6.90;99.90;;;;;;5015621;28;20512;-69
2023/11/13 03:22:56;;;;;;;11.70;11.40;;;6.80;99.90;;;;;;5016411;28;20484;-71
2023/11/13 03:25:23;;;;;;;10.97;10.73;;;6.80;99.90;;;;;;5024556;28;20461;-69
2023/11/13 03:27:49;;;;;;;11.10;10.80;;;6.70;99.90;;;;;;5020583;28;20446;-70
2023/11/13 03:30:16;;;;;;;11.67;11.37;;;6.80;99.90;;;;;;5011520;28;20474;-71
2023/11/13 03:32:45;;;;;;;11.37;11.07;;;6.80;99.90;;;;;;5025175;28;20632;-72
2023/11/13 03:35:16;;;;;;;12.33;12.03;;;6.90;99.90;;;;;;5023247;28;20458;-72
2023/11/13 03:37:44;;;;;;;12.00;11.70;;;6.90;99.90;;;;;;5025775;28;20695;-70
2023/11/13 03:40:11;;;;;;;11.83;11.53;;;7.00;99.90;;;;;;5027779;28;20493;-72
2023/11/13 03:42:39;;;;;;;11.40;11.10;;;6.90;99.90;;;;;;5015816;28;20549;-71
2023/11/13 03:45:07;;;;;;;11.63;11.33;;;6.90;99.90;;;;;;5017151;28;20839;-71
2023/11/13 03:47:34;;;;;;;11.27;10.97;;;7.00;99.90;;;;;;5028106;27;20947;-71
2023/11/13 03:50:02;;;;;;;11.10;10.80;;;7.00;99.90;;;;;;5023327;28;20488;-72
2023/11/13 03:52:29;;;;;;;11.27;10.97;;;7.00;99.90;;;;;;5027270;27;20477;-70
2023/11/13 03:54:56;;;;;;;10.80;10.60;;;7.00;99.90;;;;;;5026491;28;20529;-72
2023/11/13 03:57:23;;;;;;;10.63;10.43;;;7.00;99.90;;;;;;5017416;27;20577;-72
2023/11/13 03:59:51;;;;;;;11.07;10.77;;;7.00;99.90;;;;;;5024321;28;20503;-71
2023/11/13 04:02:19;;;;;;;11.40;11.10;;;7.10;99.90;;;;;;5022227;28;20469;-71
2023/11/13 04:04:45;;;;;;;10.60;10.40;;;7.10;99.90;;;;;;5015549;28;20472;-72
2023/11/13 04:07:19;;;;;;;10.87;10.67;;;7.00;99.90;;;;;;5028172;28;20464;-72
2023/11/13 04:09:46;;;;;;;10.60;10.40;;;7.00;99.90;;;;;;5027462;28;20458;-70
2023/11/13 04:12:13;;;;;;;10.10;9.90;;;7.00;99.90;;;;;;5032466;27;20493;-71
2023/11/13 04:14:40;;;;;;;10.50;10.30;;;7.00;99.90;;;;;;5028168;27;20987;-72
2023/11/13 04:17:08;;;;;;;10.20;10.00;;;7.10;99.90;;;;;;5009585;28;20477;-71
2023/11/13 04:19:35;;;;;;;10.17;9.97;;;7.10;99.90;;;;;;5024678;28;20987;-72
2023/11/13 04:22:01;;;;;;;10.90;10.70;;;7.10;99.90;;;;;;5028054;28;20917;-70
2023/11/13 04:24:30;;;;;;;11.50;11.20;;;7.10;99.90;;;;;;5024046;28;20457;-72
2023/11/13 04:26:57;;;;;;;11.20;10.90;;;7.20;99.90;;;;;;5014383;28;20904;-72
2023/11/13 04:29:24;;;;;;;12.17;11.87;;;7.20;99.90;;;;;;5018720;28;20820;-70
2023/11/13 04:31:51;;;;;;;11.20;10.90;;;7.30;99.90;;;;;;5016868;28;20457;-70
2023/11/13 04:34:18;;;;;;;11.33;11.03;;;7.30;99.90;;;;;;5027698;28;20504;-71
2023/11/13 04:36:44;;;;;;;11.57;11.27;;;7.30;99.90;;;;;;5027757;27;20962;-72
2023/11/13 04:39:12;;;;;;;11.43;11.13;;;7.30;99.90;;;;;;5020563;28;20573;-71
2023/11/13 04:41:41;;;;;;;11.67;11.37;;;7.40;99.90;;;;;;5027318;28;20449;-72
2023/11/13 04:44:08;;;;;;;11.83;11.53;;;7.40;99.90;;;;;;5007175;28;20518;-72
2023/11/13 04:46:35;;;;;;;11.40;11.10;;;7.40;99.90;;;;;;5022076;28;20460;-71
2023/11/13 04:49:02;;;;;;;11.77;11.47;;;7.40;99.90;;;;;;5024017;28;20467;-71
2023/11/13 04:51:29;;;;;;;11.67;11.37;;;7.40;99.90;;;;;;5017417;28;20485;-71
2023/11/13 04:53:55;;;;;;;12.60;12.30;;;7.50;99.90;;;;;;5027412;27;20458;-71
2023/11/13 04:56:22;;;;;;;12.33;12.03;;;7.50;99.90;;;;;;5022109;28;20929;-71
2023/11/13 04:58:51;;;;;;;13.20;12.80;;;7.60;99.90;;;;;;5024797;28;20909;-72
2023/11/13 05:01:19;;;;;;;13.40;13.00;;;7.60;99.90;;;;;;5021065;28;20465;-72
2023/11/13 05:03:47;;;;;;;12.20;11.90;;;7.70;99.90;;;;;;5004172;27;20484;-71
2023/11/13 05:06:15;;;;;;;12.17;11.87;;;7.70;99.90;;;;;;5009095;28;20809;-72
2023/11/13 05:08:43;;;;;;;13.10;12.70;;;7.70;99.90;;;;;;5025707;27;20553;-71
2023/11/13 05:11:20;;;;;;;13.40;13.00;;;7.70;99.90;;;;;;5033917;27;20857;-70
2023/11/13 05:13:49;;;;;;;13.40;13.00;;;7.70;99.90;;;;;;5040661;27;20489;-71
2023/11/13 05:16:20;;;;;;;13.17;12.77;;;7.80;99.90;;;;;;5024717;28;20517;-71
2023/11/13 05:18:47;;;;;;;12.43;12.13;;;7.80;99.90;;;;;;5015656;27;20561;-70
2023/11/13 05:21:14;;;;;;;12.43;12.13;;;7.80;99.90;;;;;;5024825;28;20464;-72
2023/11/13 05:23:41;;;;;;;13.40;13.00;;;7.70;99.90;;;;;;5026064;28;20851;-72
2023/11/13 05:26:08;;;;;;;13.37;12.97;;;7.80;99.90;;;;;;5025382;28;20848;-72
2023/11/13 05:28:34;;;;;;;13.57;13.17;;;7.80;99.90;;;;;;5016440;27;20464;-72
2023/11/13 05:31:02;;;;;;;13.77;13.37;;;7.80;99.90;;;;;;5016055;28;20469;-70
2023/11/13 05:33:30;;;;;;;13.10;12.70;;;7.90;99.90;;;;;;5024091;28;20458;-72
2023/11/13 05:35:57;;;;;;;13.80;13.40;;;7.80;99.90;;;;;;5017812;28;20628;-71
2023/11/13 05:38:24;;;;;;;13.53;13.13;;;7.90;99.90;;;;;;5025400;27;20472;-71
2023/11/13 05:40:51;;;;;;;13.10;12.70;;;7.90;99.90;;;;;;5018974;28;20551;-72
2023/11/13 05:43:18;;;;;;;12.47;12.17;;;8.00;99.90;;;;;;5017185;27;20484;-72
2023/11/13 05:45:45;;;;;;;12.40;12.10;;;8.00;99.90;;;;;;5018570;28;20563;-71
2023/11/13 05:48:12;;;;;;;12.10;11.80;;;8.10;99.90;;;;;;5023579;28;20989;-69
2023/11/13 05:50:40;;;;;;;11.43;11.13;;;8.10;99.90;;;;;;5010218;28;20469;-71
2023/11/13 05:53:07;;;;;;;11.73;11.43;;;8.00;99.90;;;;;;5010414;28;20594;-72
2023/11/13 05:55:36;;;;;;;12.10;11.80;;;8.00;99.90;;;;;;5020662;28;20473;-72
2023/11/13 05:58:04;;;;;;;13.07;12.67;;;8.10;99.90;;;;;;5013326;28;20542;-73
2023/11/13 06:00:32;;;;;;;12.90;12.50;;;8.10;99.90;;;;;;5022244;28;20854;-70
2023/11/13 06:02:59;;;;;;;13.27;12.87;;;8.10;99.90;;;;;;5008016;27;20970;-69
2023/11/13 06:05:26;;;;;;;13.23;12.83;;;8.10;99.90;;;;;;5011700;28;20465;-71
2023/11/13 06:07:54;;;;;;;13.93;13.53;;;8.10;99.90;;;;;;5022889;27;20509;-70
2023/11/13 06:10:21;;;;;;;14.60;14.10;;;8.10;99.90;;;;;;5021651;28;20457;-71
2023/11/13 06:12:48;;;;;;;14.67;14.17;;;8.20;99.90;;;;;;5035807;27;20476;-71
2023/11/13 06:15:16;;;;;;;14.90;14.40;;;8.20;99.90;;;;;;5022708;28;20506;-71
2023/11/13 06:17:44;;;;;;;15.67;15.07;;;8.30;99.90;;;;;;5018585;27;20988;-70
2023/11/13 06:20:13;;;;;;;16.07;15.47;;;8.40;99.90;;;;;;5012575;28;20592;-70
2023/11/13 06:22:39;;;;;;;16.40;15.80;;;8.50;99.90;;;;;;5012450;27;20499;-70
2023/11/13 06:25:08;;;;;;;14.87;14.37;;;8.60;99.90;;;;;;5020093;28;20460;-70
2023/11/13 06:27:35;;;;;;;14.60;14.10;;;8.80;99.90;;;;;;5023538;28;20461;-72
2023/11/13 06:30:02;;;;;;;13.90;13.50;;;9.00;99.90;;;;;;5023229;28;20770;-72
2023/11/13 06:32:29;;;;;;;14.00;13.60;;;9.20;99.90;;;;;;5011920;27;20468;-71
2023/11/13 06:34:56;;;;;;;13.60;13.20;;;9.40;99.90;;;;;;5004568;28;20469;-71
2023/11/13 06:37:24;;;;;;;12.77;12.37;;;9.50;99.90;;;;;;5014788;28;20461;-70
2023/11/13 06:39:51;;;;;;;12.40;12.10;;;9.60;99.90;;;;;;5059442;27;20491;-71
2023/11/13 06:42:20;;;;;;;12.07;11.77;;;9.70;99.90;;;;;;5014880;28;20493;-72
2023/11/13 06:44:47;;;;;;;12.33;12.03;;;9.70;99.90;;;;;;5018801;28;21310;-72
2023/11/13 06:47:14;;;;;;;12.33;12.03;;;9.80;99.90;;;;;;5014695;28;20489;-70
2023/11/13 06:49:41;;;;;;;11.23;10.93;;;9.90;99.90;;;;;;5044332;27;20458;-70
2023/11/13 06:52:08;;;;;;;11.10;10.80;;;9.90;99.90;;;;;;5017825;28;20489;-70
2023/11/13 06:54:35;;;;;;;10.30;10.10;;;10.00;99.90;;;;;;5027102;27;20574;-71
2023/11/13 06:57:02;;;;;;;10.53;10.33;;;10.00;99.90;;;;;;5015625;28;20462;-72
2023/11/13 06:59:31;;;;;;;10.90;10.70;;;10.10;99.90;;;;;;5012806;28;21026;-71
2023/11/13 07:01:57;;;;;;;11.30;11.00;;;10.10;99.90;;;;;;5011459;28;20468;-72
2023/11/13 07:04:25;;;;;;;10.00;9.80;;;10.10;99.90;;;;;;5019514;28;20985;-71
2023/11/13 07:06:52;;;;;;;10.00;9.80;;;10.20;99.90;;;;;;5013106;28;20496;-72
2023/11/13 07:09:19;;;;;;;9.83;9.63;;;10.20;99.90;;;;;;5037223;27;20455;-70
2023/11/13 07:11:47;;;;;;;10.30;10.10;;;10.20;99.90;;;;;;5014910;28;20988;-71
2023/11/13 07:14:16;;;;;;;10.57;10.37;;;10.20;99.90;;;;;;5034733;28;20456;-71
2023/11/13 07:16:44;;;;;;;9.93;9.73;;;10.20;99.90;;;;;;5009196;28;20568;-72
2023/11/13 07:19:14;;;;;;;9.77;9.57;;;10.30;99.90;;;;;;5012360;28;20981;-70
2023/11/13 07:21:41;;;;;;;9.60;9.40;;;10.30;99.90;;;;;;5018170;28;20914;-73
2023/11/13 07:24:10;;;;;;;10.10;9.90;;;10.30;99.90;;;;;;5034953;28;20545;-70
2023/11/13 07:26:37;;;;;;;9.67;9.47;;;10.30;99.90;;;;;;5012456;28;20550;-70
2023/11/13 07:29:04;;;;;;;9.80;9.60;;;10.20;99.90;;;;;;5023336;28;20457;-69
2023/11/13 07:31:31;;;;;;;10.30;10.10;;;10.30;99.90;;;;;;5013984;28;20504;-70
2023/11/13 07:34:00;;;;;;;10.20;10.00;;;10.30;99.90;;;;;;5021569;28;20554;-72
2023/11/13 07:36:27;;;;;;;9.70;9.50;;;10.30;99.90;;;;;;5017051;28;20538;-72
2023/11/13 07:38:53;;;;;;;9.83;9.63;;;10.40;99.90;;;;;;5018893;28;20462;-70
2023/11/13 07:41:21;;;;;;;9.40;9.20;;;10.40;99.90;;;;;;5010106;28;20494;-72
2023/11/13 07:43:49;;;;;;;9.50;9.30;;;10.40;99.90;;;;;;5016277;28;20466;-71
2023/11/13 07:46:18;;;;;;;9.27;9.07;;;10.50;99.90;;;;;;5017133;28;20463;-71
2023/11/13 07:48:46;;;;;;;9.43;9.23;;;10.50;99.90;;;;;;5017288;28;20584;-72
2023/11/13 07:51:17;;;;;;;8.77;8.67;;;10.50;99.90;;;;;;5016878;28;20979;-70
2023/11/13 07:53:46;;;;;;;9.50;9.30;;;10.50;99.90;;;;;;5023681;28;20508;-73
2023/11/13 07:56:13;;;;;;;9.30;9.10;;;10.60;99.90;;;;;;5017161;28;20511;-71
2023/11/13 07:58:42;;;;;;;9.40;9.20;;;10.60;99.90;;;;;;5014788;28;21089;-71
2023/11/13 08:01:09;;;;;;;9.63;9.43;;;10.60;99.90;;;;;;5019328;28;20592;-71
2023/11/13 08:03:36;;;;;;;8.60;8.50;;;10.60;99.90;;;;;;5010816;28;20499;-71
2023/11/13 08:06:03;;;;;;;9.87;9.67;;;10.60;99.90;;;;;;5009895;28;20468;-71
2023/11/13 08:08:33;;;;;;;9.67;9.47;;;10.60;99.90;;;;;;5019068;28;20462;-71
2023/11/13 08:11:00;;;;;;;9.60;9.40;;;10.60;99.90;;;;;;5002113;28;20475;-72
2023/11/13 08:13:27;;;;;;;9.90;9.70;;;10.60;99.90;;;;;;5044831;28;20458;-70
2023/11/13 08:15:54;;;;;;;10.40;10.20;;;10.60;99.90;;;;;;5019640;28;20463;-71
2023/11/13 08:18:22;;;;;;;10.27;10.07;;;10.60;99.90;;;;;;5020560;28;20552;-73
2023/11/13 08:20:50;;;;;;;9.70;9.50;;;10.60;99.90;;;;;;5013908;28;20495;-72
2023/11/13 08:23:16;;;;;;;9.70;9.50;;;10.60;99.90;;;;;;5025924;28;20451;-70
2023/11/13 08:25:48;;;;;;;9.70;9.50;;;10.50;99.90;;;;;;5027197;28;20465;-71
2023/11/13 08:28:15;;;;;;;10.43;10.23;;;10.50;99.90;;;;;;5019474;28;20611;-71
2023/11/13 08:30:41;;;;;;;10.40;10.20;;;10.50;99.90;;;;;;5026321;28;20526;-71
2023/11/13 08:33:09;;;;;;;10.30;10.10;;;10.50;99.90;;;;;;5019407;28;20457;-72
2023/11/13 08:35:36;;;;;;;9.90;9.70;;;10.50;99.90;;;;;;5026153;28;20494;-71
2023/11/13 08:38:03;;;;;;;9.97;9.77;;;10.40;99.90;;;;;;5026714;28;20822;-73
2023/11/13 08:40:30;;;;;;;9.77;9.57;;;10.40;99.90;;;;;;5007621;27;20484;-72
2023/11/13 08:43:01;;;;;;;9.77;9.57;;;10.30;99.90;;;;;;5011581;28;20851;-72
2023/11/13 08:45:30;;;;;;;10.37;10.17;;;10.30;99.90;;;;;;5011285;27;20514;-73
2023/11/13 08:47:59;;;;;;;10.50;10.30;;;10.30;99.90;;;;;;5008825;28;20462;-71
2023/11/13 08:50:27;;;;;;;10.07;9.87;;;10.20;99.90;;;;;;5015666;27;20556;-72
2023/11/13 08:52:56;;;;;;;9.77;9.57;;;10.20;99.90;;;;;;5013739;28;20582;-73
2023/11/13 08:55:25;;;;;;;9.50;9.30;;;10.10;99.90;;;;;;5011989;27;20470;-73
2023/11/13 08:57:53;;;;;;;10.20;10.00;;;10.10;99.90;;;;;;5014124;28;20964;-72
2023/11/13 09:00:22;;;;;;;10.13;9.93;;;10.00;99.90;;;;;;5009619;27;20522;-72
2023/11/13 09:02:53;;;;;;;10.83;10.63;;;10.00;99.90;;;;;;5012582;28;20482;-72
2023/11/13 09:05:25;;;;;;;11.20;10.90;;;10.00;99.90;;;;;;5013293;27;20910;-72
2023/11/13 09:07:52;;;;;;;10.63;10.43;;;10.00;99.90;;;;;;5008401;28;20980;-73
2023/11/13 09:10:21;;;;;;;9.90;9.70;;;10.00;99.90;;;;;;5016472;27;20828;-72
2023/11/13 09:12:48;;;;;;;10.53;10.33;;;9.90;99.90;;;;;;5013347;27;20466;-72
2023/11/13 09:15:17;;;;;;;9.97;9.77;;;9.90;99.90;;;;;;5011231;27;20520;-72
2023/11/13 09:17:47;;;;;;;9.67;9.47;;;9.90;99.90;;;;;;5011815;28;20478;-73
2023/11/13 09:20:19;;;;;;;9.97;9.77;;;9.90;99.90;;;;;;5008596;27;20489;-72
2023/11/13 09:22:47;;;;;;;8.73;8.63;;;9.80;99.90;;;;;;5012051;28;20506;-72
2023/11/13 09:25:15;;;;;;;8.83;8.73;;;9.90;99.90;;;;;;5014705;28;21100;-72
2023/11/13 09:27:43;;;;;;;9.73;9.53;;;9.90;99.90;;;;;;5012042;28;20465;-71
2023/11/13 09:30:11;;;;;;;8.83;8.73;;;9.90;99.90;;;;;;5006189;28;20569;-73
2023/11/13 09:32:40;;;;;;;9.00;8.90;;;9.90;99.90;;;;;;5012253;28;20466;-72
2023/11/13 09:35:17;;;;;;;9.17;8.97;;;9.90;99.90;;;;;;5012823;28;20473;-71
2023/11/13 09:37:45;;;;;;;8.90;8.80;;;9.80;99.90;;;;;;5011821;28;20470;-71
2023/11/13 09:40:15;;;;;;;9.50;9.30;;;9.90;99.90;;;;;;5013120;28;20477;-73
2023/11/13 09:42:45;;;;;;;9.10;8.93;;;9.90;99.90;;;;;;5011264;28;20549;-70
2023/11/13 09:45:12;;;;;;;9.50;9.30;;;9.90;99.90;;;;;;5011998;28;20491;-73
2023/11/13 09:47:43;;;;;;;8.77;8.67;;;10.00;99.90;;;;;;5010410;28;20551;-71
2023/11/13 09:50:16;;;;;;;9.47;9.27;;;10.00;99.90;;;;;;5014295;28;20685;-73
2023/11/13 09:52:50;;;;;;;9.70;9.50;;;10.00;99.90;;;;;;5009710;28;20922;-72
2023/11/13 09:55:20;;;;;;;8.93;8.83;;;10.00;99.90;;;;;;5012623;27;20467;-72
2023/11/13 09:57:51;;;;;;;8.73;8.63;;;10.00;99.90;;;;;;5014272;28;20463;-72
2023/11/13 10:00:23;;;;;;;9.83;9.63;;;10.00;99.90;;;;;;5007939;28;20470;-72
2023/11/13 10:02:51;;;;;;;9.73;9.53;;;10.10;99.90;;;;;;5011397;28;20866;-73
2023/11/13 10:05:21;;;;;;;9.30;9.10;;;10.00;99.90;;;;;;5009040;28;20457;-73
2023/11/13 10:07:52;;;;;;;8.97;8.83;;;10.10;99.90;;;;;;5008155;28;20474;-73
2023/11/13 10:10:22;;;;;;;10.00;9.80;;;10.10;99.90;;;;;;5013437;27;20471;-71
2023/11/13 10:12:49;;;;;;;10.37;10.17;;;10.20;99.90;;;;;;5007430;28;20836;-70
2023/11/13 10:15:22;;;;;;;11.00;10.70;;;10.20;99.90;;;;;;5013899;27;20993;-70
2023/11/13 10:17:48;;;;;;;10.80;10.60;;;10.30;99.90;;;;;;5011782;28;20460;-72
2023/11/13 10:20:17;;;;;;;10.87;10.57;;;10.40;99.90;;;;;;5012906;28;20913;-70
2023/11/13 10:22:47;;;;;;;10.50;10.30;;;10.50;99.90;;;;;;5011096;28;21576;-70
2023/11/13 10:25:14;;;;;;;11.40;11.10;;;10.60;99.90;;;;;;5010219;27;20952;-71
2023/11/13 10:27:46;;;;;;;10.57;10.37;;;10.70;99.90;;;;;;5012288;28;20495;-70
2023/11/13 10:30:13;;;;;;;10.27;10.07;;;10.70;99.90;;;;;;5013248;27;20476;-70
2023/11/13 10:32:40;;;;;;;10.67;10.47;;;10.70;99.90;;;;;;5007712;28;20466;-71
2023/11/13 10:35:09;;;;;;;9.77;9.57;;;10.80;99.90;;;;;;5010357;28;20507;-70
2023/11/13 10:37:38;;;;;;;10.07;9.87;;;10.90;99.90;;;;;;5005479;28;21042;-71
2023/11/13 10:40:15;;;;;;;10.30;10.10;;;10.90;99.90;;;;;;5007197;28;20972;-71
2023/11/13 10:42:50;;;;;;;10.40;10.20;;;10.90;99.90;;;;;;5011692;28;21046;-72
2023/11/13 10:45:17;;;;;;;10.20;10.00;;;10.90;99.90;;;;;;5008401;28;21016;-71
2023/11/13 10:47:49;;;;;;;10.40;10.20;;;10.90;99.90;;;;;;5012039;28;20462;-72
2023/11/13 10:50:19;;;;;;;10.20;10.00;;;11.00;99.90;;;;;;5015225;28;20490;-72
2023/11/13 10:52:49;;;;;;;10.90;10.60;;;11.00;99.90;;;;;;5009349;28;20521;-71
2023/11/13 10:55:20;;;;;;;11.23;10.93;;;11.10;99.90;;;;;;5011211;28;20580;-72
2023/11/13 10:57:47;;;;;;;10.80;10.50;;;11.10;99.90;;;;;;5007400;28;20472;-71
2023/11/13 11:00:15;;;;;;;11.53;11.23;;;11.10;99.90;;;;;;5012787;27;20854;-71
2023/11/13 11:02:45;;;;;;;11.07;10.77;;;11.20;99.90;;;;;;5005616;28;21025;-70
2023/11/13 11:05:20;;;;;;;11.90;11.60;;;11.20;99.90;;;;;;5011524;28;20467;-72
2023/11/13 11:07:52;;;;;;;11.90;11.60;;;11.30;99.90;;;;;;5007296;28;20479;-70
2023/11/13 11:10:24;;;;;;;12.10;11.80;;;11.30;99.90;;;;;;5016355;27;20551;-70
2023/11/13 11:12:59;;;;;;;11.80;11.50;;;11.40;99.90;;;;;;5009767;28;20503;-70
2023/11/13 11:16:06;;;;;;;11.93;11.63;;;11.50;99.90;;;;;;5009322;28;20870;-72
2023/11/13 11:18:41;;;;;;;12.70;12.30;;;11.50;99.90;;;;;;5011234;28;20476;-72
2023/11/13 11:21:20;;;;;;;12.50;12.10;;;11.60;99.90;;;;;;5012298;28;20499;-72
2023/11/13 11:23:55;;;;;;;11.77;11.47;;;11.60;99.90;;;;;;5011662;28;20476;-71
2023/11/13 11:26:23;;;;;;;12.83;12.43;;;11.80;99.90;;;;;;5011630;28;20462;-72
2023/11/13 11:28:52;;;;;;;11.60;11.30;;;11.90;99.90;;;;;;5010329;28;20497;-72
2023/11/13 11:31:48;;;;;;;12.30;12.00;;;11.90;99.90;;;;;;5010797;28;20465;-72
2023/11/13 11:34:22;;;;;;;11.70;11.40;;;12.00;99.90;;;;;;5006639;28;20477;-73
2023/11/13 11:36:53;;;;;;;11.00;10.70;;;12.10;99.90;;;;;;5011385;28;20475;-71
2023/11/13 11:39:22;;;;;;;8.67;8.57;;;12.30;99.90;;;;;;5008029;28;20468;-72
2023/11/13 11:41:52;;;;;;;8.67;8.57;;;12.90;99.90;;;;;;5012753;28;20492;-72
2023/11/13 11:44:22;;;;;;;12.70;12.30;;;13.20;99.90;;;;;;5010424;28;20486;-73
2023/11/13 11:46:50;;;;;;;11.47;11.17;;;13.40;99.90;;;;;;5008241;28;20560;-72
2023/11/13 11:49:25;;;;;;;11.13;10.83;;;13.50;99.90;;;;;;5010068;28;20458;-73
2023/11/13 11:51:55;;;;;;;10.50;10.30;;;13.60;99.90;;;;;;5012665;28;20879;-73
2023/11/13 11:54:22;;;;;;;9.73;9.53;;;13.70;99.90;;;;;;5010321;28;20552;-71
2023/11/13 11:57:02;;;;;;;10.73;10.47;;;13.80;99.90;;;;;;5015037;28;20533;-74
2023/11/13 11:59:30;;;;;;;10.87;10.57;;;13.90;99.90;;;;;;5015138;28;20972;-72
2023/11/13 12:02:00;;;;;;;9.60;9.40;;;13.90;99.90;;;;;;5014977;28;20489;-69
2023/11/13 12:04:28;;;;;;;10.07;9.87;;;13.90;99.90;;;;;;5010066;28;20465;-71
2023/11/13 12:06:56;;;;;;;9.60;9.40;;;13.90;99.90;;;;;;5010802;27;20478;-73
2023/11/13 12:09:23;;;;;;;10.30;10.10;;;13.90;99.90;;;;;;5020306;27;20537;-72
2023/11/13 12:11:51;;;;;;;9.77;9.57;;;13.90;99.90;;;;;;5015887;27;20816;-72
2023/11/13 12:14:20;;;;;;;8.83;8.73;;;13.90;99.90;;;;;;5015547;27;20499;-72
2023/11/13 12:16:49;;;;;;;8.77;8.67;;;14.00;99.90;;;;;;5009317;27;20493;-72
2023/11/13 12:19:16;;;;;;;8.70;8.60;;;14.00;99.90;;;;;;5015326;28;20984;-71
2023/11/13 12:21:43;;;;;;;8.53;8.43;;;14.10;99.90;;;;;;5013964;28;20487;-72
2023/11/13 12:24:10;;;;;;;8.83;8.73;;;14.20;99.90;;;;;;5010306;28;20840;-71
2023/11/13 12:26:44;;;;;;;8.37;8.27;;;14.30;99.90;;;;;;5015059;28;20501;-71
2023/11/13 12:29:15;;;;;;;8.40;8.30;;;14.40;99.90;;;;;;5013189;28;21027;-71
2023/11/13 12:31:44;;;;;;;7.43;7.33;;;14.40;99.90;;;;;;5016308;27;20475;-71
2023/11/13 12:34:14;;;;;;;7.40;7.30;;;14.40;99.90;;;;;;5009303;28;20480;-71
2023/11/13 12:36:42;;;;;;;7.87;7.77;;;14.40;99.90;;;;;;5010172;27;20522;-69
2023/11/13 12:39:15;;;;;;;7.17;7.07;;;14.40;99.90;;;;;;5012517;28;20542;-68
2023/11/13 12:41:46;;;;;;;7.00;6.90;;;14.40;99.90;;;;;;5018778;27;20489;-72
2023/11/13 12:44:13;;;;;;;7.20;7.10;;;14.50;99.90;;;;;;5013660;28;20485;-72
2023/11/13 12:46:46;;;;;;;6.90;6.80;;;14.50;99.90;;;;;;5011484;28;20489;-70
2023/11/13 12:49:14;;;;;;;7.30;7.20;;;14.50;99.90;;;;;;5014358;28;20460;-70